Flight Information

DEPARTURE
OXNARD, CA
Elevation:
44
Runways:
7/25 - 5953x100 - ASPH-F
ATIS:
118.05 805-985-1758
Ground:
121.9
Tower:
134.95
DESTINATION
,
Elevation:
TPA:
1000 (est.)


6827.9 NM73° True-14° Var58° HDG

Flight Plan:
(click to file on line)

1. Type
2. Aircraft Identification
3. Aircraft Type / Special Equipment
4. True Airspeed
kts
5. Departure Airport
(ICAO code)
6. Arriving Airport
(ICAO code)
7. Cruising Altitude
ft
8. Alternate Airport
(ICAO code)
9. Route of Flight
10. Remarks


00:00:00 Departure ATIS: Destination ATIS:

Clearance Limit:
Route:
Altitude: Expect in minutes
Frequency:
Transponder: (7500 Hijack / 7600 Lost Comms / 7700 Emergency)


KOXR 261351Z AUTO 00000KT 4SM BR OVC006 16/15 A2997 RMK AO2 SLP149 T01560150
Time: 2022-06-26T13:51:00Z
1656253537
Winds: calm
Visibility: 4.0 sm
Clouds (AGL): OVC 600
Temperature: 15.6 C
Dew Point: 15.0 C
Pressure: 29.970472 in Hgbr


Notes:

Data extracted from FAA Digital Chart Supplement. Effective: 0901Z Thursday, 27 JAN 2022 to 0900z Thursday, 24 MAR 2022
Current ATIS data is provided courtisy of PilotEdge.